Station: EBLB - 22/01/2019 02:25Z (il y a 10 minutes)
EBLB 220225Z AUTO VRB02KT 9000 FEW220/// M08/M09 Q1012 BLU
Vent de direction variable: 2 kt
Visibilité: 9000 m
Nuages épars à 22000 pieds
Température: -08ºC - Point de rosée: -09ºC - QNH: 1012 hPa
Code couleur militaire: BLU (conditions VMC)